KBYG/BYG METAR and TAF weather

Enter ICAO airport designator
Station Type Date Time Source
KBYG METAR 2021/01/27 12:53 UTC NOAA

KBYG 271253Z AUTO 18004KT 10SM CLR M11/M15 A2983 RMK AO2 SLP157 T11061150


Station Type Date Time Source
KBYG Decoded METAR 2021/01/27 12:53 UTC NOAA

BUFFALO JOHNSON COUNTY AIRPORT , WY, United States (KBYG) 44-23N 106-43W 1497M
Jan 27, 2021 - 07:53 AM EST / 2021.01.27 1253 UTC
Wind: from the S (180 degrees) at 5 MPH (4 KT):0
Visibility: 10 mile(s):0
Sky conditions: clear
Temperature: 12.9 F (-10.6 C)
Windchill: 5 F (-15 C):1
Dew Point: 5.0 F (-15.0 C)
Relative Humidity: 70%
Pressure (altimeter): 29.83 in. Hg (1010 hPa)
ob: KBYG 271253Z AUTO 18004KT 10SM CLR M11/M15 A2983 RMK AO2 SLP157 T11061150
cycle: 13

Station Type Date Time Source
KBYG TAF UTC NOAA

Error!

Example: see airport list